Terminal Aerodrome Forecast
Issued by NWS

Home | Current Version | Previous Version | Text Only | Print | Product List | Glossary On
Versions: 1 2 3 4 5 6 7 8 9 10 11 12 13 14 15 16 17 18 19 20 21 22 23 24 25
000
FTUS43 KDLH 132300 RRA
TAFHYR
TAF
KHYR 132346Z 1400/1424 19005KT P6SM BKN060
     FM140800 18006KT P6SM VCSH BKN050 WS015/23035KT
     FM141400 24006KT P6SM SCT050
     FM141800 27008G16KT P6SM BKN050=

USA.gov is the U.S. government's official web portal to all federal, state and local government web resources and services.